Lebanon, VA

9:06 PM EST on December 20, 2014 (GMT -0500)
Tri-Cities Regional Tennessee / Virginia | Change Station
CLOSE
Current Station
Airport
Location: Tri-Cities,
Elevation: 1519 ft
Nearby Weather Stations

Elev 1519 ft 36.48 °N, 82.40 °W | Updated 13 minutes ago

Overcast
Overcast
40 °F
Feels Like 36 °F
N
6
Wind Variable Wind from SW

Today
High -- | Low -- °F
--% Chance of Precip.
Yesterday
High -- | Low -- °F
Precip. -- in
7:37 AM 5:14 PM
Waning Crescent, 1% visible
Pressure 30.22 in
Visibility 8.0 miles
Clouds Scattered Clouds 1400 ft
Overcast 2800 ft
Windchill 36 °F
Dew Point 37 °F
Humidity 89%
Rainfall 0.01 in
Snow Depth Not available.
UV 0 out of 12
Pollen .10 out of 12
Air Quality Not available.
Flu Activity Not available.
METAR KTRI 210153Z 23005KT 8SM SCT014 OVC028 04/03 A3023 RMK AO2 SLP234 T00440028

More Conditions Fewer Conditions

Pressure 30.22 in
Visibility 8.0 miles
Clouds Scattered Clouds 1400 ft
Overcast 2800 ft
Windchill 36 °F
Dew Point 37 °F
Humidity 89%
Rainfall 0.01 in
Snow Depth Not available.
UV 0 out of 12
Pollen .10 out of 12
Air Quality Not available.
Flu Activity Not available.
METAR KTRI 210153Z 23005KT 8SM SCT014 OVC028 04/03 A3023 RMK AO2 SLP234 T00440028

More Conditions Fewer Conditions

10-Day Weather Forecast

Almanac

Astronomy

Dec. 20, 2014 Rise Set
Actual Time
Civil Twilight
Nautical Twilight
Astronomical Twilight
Moon
Length of Visible Light
Length of Day
Tomorrow will be .
, % of the Moon is Illuminated

Today's Extremes

State Highs State Lows

Community

WunderPhotos

Upload Photos

1,779,346 photos uploaded!

WunderBlogs® & News

Nearby

Air Quality

  Air Quality AQ Index Pollutant
Not available.

Snow Depth

Station Depth Elevation

Earthquake Activity

City Distance Mag. Time & Date
Minimum magnitude displayed is 2.5.

Coastal Water Temperatures

Place Temperature

Nearby Weather Stations